Main page
METAR-TAF:

METAR-TAF

Airports :

Liège, Belgium

Liège Airport

latitude: 50-39N, longitude: 005-27E, elevation: 186 m

Current weather observation

The report was made 38 minutes ago, at 21:50 UTC
Wind 9 kt from the Southwest
Temperature 13°C
Humidity 82%
Pressure 1021 hPa
Visibility 10 km or more
Few clouds at a height of 3900 ft

METAR: EBLG 192150Z 22009KT 9999 FEW039 13/10 Q1021 NOSIG

Time: 00:28 (22:28 UTC)

Forecast

The report was made 5 hours and 18 minutes ago, at 17:10 UTC
Forecast valid from 19 at 18 UTC to 20 at 24 UTC
Wind 8 kt from the Southwest
Visibility 10 km or more
Few clouds at a height of 2500 ft
Scattered clouds at a height of 4000 ft

TAF: EBLG 191710Z 1918/2024 23008KT 9999 FEW025 SCT040

Weather observations and forecasts of more than 4000 airports (METAR and TAF reports).

The available stations are represented by yellow and red dots on the map.

Hover mouse over dot to see the name of the station.

Then click to see weather observations and forecasts.

To change the map : click on the green buttons with a black cross to zoom in, on the green button with a dash to zoom out, or on the green arrows for adjacent maps.


METAR-TAF: